sensor_id;sensor_type;location;lat;lon;timestamp;P1;durP1;ratioP1;P2;durP2;ratioP2
40953;SDS011;26686;50.130;8.710;2023-03-01T00:04:36;13.68;;;11.27;;
40953;SDS011;26686;50.130;8.710;2023-03-01T00:09:39;13.02;;;11.35;;
40953;SDS011;26686;50.130;8.710;2023-03-01T00:14:41;11.60;;;10.40;;
40953;SDS011;26686;50.130;8.710;2023-03-01T00:19:42;12.75;;;10.13;;
40953;SDS011;26686;50.130;8.710;2023-03-01T00:24:44;11.52;;;10.32;;
40953;SDS011;26686;50.130;8.710;2023-03-01T00:29:46;11.93;;;9.65;;
40953;SDS011;26686;50.130;8.710;2023-03-01T00:34:47;12.55;;;11.27;;
40953;SDS011;26686;50.130;8.710;2023-03-01T00:39:55;11.63;;;10.27;;
40953;SDS011;26686;50.130;8.710;2023-03-01T00:44:57;11.75;;;10.55;;
40953;SDS011;26686;50.130;8.710;2023-03-01T00:49:59;12.88;;;11.65;;
40953;SDS011;26686;50.130;8.710;2023-03-01T00:55:00;10.90;;;9.85;;
40953;SDS011;26686;50.130;8.710;2023-03-01T01:00:03;11.70;;;10.25;;
40953;SDS011;26686;50.130;8.710;2023-03-01T01:05:06;11.82;;;10.63;;
40953;SDS011;26686;50.130;8.710;2023-03-01T01:10:08;11.80;;;10.48;;
40953;SDS011;26686;50.130;8.710;2023-03-01T01:15:13;12.40;;;10.95;;
40953;SDS011;26686;50.130;8.710;2023-03-01T01:20:19;12.02;;;10.75;;
40953;SDS011;26686;50.130;8.710;2023-03-01T01:25:20;13.20;;;11.85;;
40953;SDS011;26686;50.130;8.710;2023-03-01T01:30:22;12.85;;;11.57;;
40953;SDS011;26686;50.130;8.710;2023-03-01T01:35:24;12.02;;;10.82;;
40953;SDS011;26686;50.130;8.710;2023-03-01T01:40:25;12.13;;;10.93;;
40953;SDS011;26686;50.130;8.710;2023-03-01T01:45:32;13.57;;;12.18;;
40953;SDS011;26686;50.130;8.710;2023-03-01T01:50:35;12.90;;;11.57;;
40953;SDS011;26686;50.130;8.710;2023-03-01T01:55:41;12.32;;;11.00;;
40953;SDS011;26686;50.130;8.710;2023-03-01T02:00:45;12.48;;;11.18;;
40953;SDS011;26686;50.130;8.710;2023-03-01T02:05:50;13.48;;;12.07;;
40953;SDS011;26686;50.130;8.710;2023-03-01T02:10:58;13.23;;;11.73;;
40953;SDS011;26686;50.130;8.710;2023-03-01T02:16:04;12.50;;;11.38;;
40953;SDS011;26686;50.130;8.710;2023-03-01T02:26:45;12.68;;;11.38;;
40953;SDS011;26686;50.130;8.710;2023-03-01T02:31:50;11.93;;;10.53;;
40953;SDS011;26686;50.130;8.710;2023-03-01T02:36:56;13.63;;;12.17;;
40953;SDS011;26686;50.130;8.710;2023-03-01T02:42:01;18.52;;;12.45;;
40953;SDS011;26686;50.130;8.710;2023-03-01T02:47:05;13.38;;;11.63;;
40953;SDS011;26686;50.130;8.710;2023-03-01T02:57:43;12.75;;;11.48;;
40953;SDS011;26686;50.130;8.710;2023-03-01T03:02:47;12.13;;;10.85;;
40953;SDS011;26686;50.130;8.710;2023-03-01T03:07:50;14.13;;;11.87;;
40953;SDS011;26686;50.130;8.710;2023-03-01T03:12:53;16.70;;;12.90;;
40953;SDS011;26686;50.130;8.710;2023-03-01T03:17:58;14.73;;;11.73;;
40953;SDS011;26686;50.130;8.710;2023-03-01T03:23:00;13.82;;;12.43;;
40953;SDS011;26686;50.130;8.710;2023-03-01T03:28:04;14.13;;;12.73;;
40953;SDS011;26686;50.130;8.710;2023-03-01T03:33:11;15.85;;;13.18;;
40953;SDS011;26686;50.130;8.710;2023-03-01T03:38:14;15.02;;;13.63;;
40953;SDS011;26686;50.130;8.710;2023-03-01T03:43:19;14.20;;;12.63;;
40953;SDS011;26686;50.130;8.710;2023-03-01T03:48:23;16.42;;;14.02;;
40953;SDS011;26686;50.130;8.710;2023-03-01T03:53:27;15.65;;;13.40;;
40953;SDS011;26686;50.130;8.710;2023-03-01T03:58:30;14.57;;;12.73;;
40953;SDS011;26686;50.130;8.710;2023-03-01T04:03:32;15.63;;;12.85;;
40953;SDS011;26686;50.130;8.710;2023-03-01T04:08:34;13.90;;;12.50;;
40953;SDS011;26686;50.130;8.710;2023-03-01T04:13:36;15.50;;;12.90;;
40953;SDS011;26686;50.130;8.710;2023-03-01T04:18:37;17.10;;;14.50;;
40953;SDS011;26686;50.130;8.710;2023-03-01T04:23:39;16.67;;;14.00;;
40953;SDS011;26686;50.130;8.710;2023-03-01T04:28:42;15.50;;;13.88;;
40953;SDS011;26686;50.130;8.710;2023-03-01T04:33:48;15.27;;;13.68;;
40953;SDS011;26686;50.130;8.710;2023-03-01T04:38:55;15.77;;;13.65;;
40953;SDS011;26686;50.130;8.710;2023-03-01T04:43:57;16.00;;;14.25;;
40953;SDS011;26686;50.130;8.710;2023-03-01T04:49:01;18.58;;;14.23;;
40953;SDS011;26686;50.130;8.710;2023-03-01T04:54:03;15.52;;;13.93;;
40953;SDS011;26686;50.130;8.710;2023-03-01T04:59:06;17.73;;;14.50;;
40953;SDS011;26686;50.130;8.710;2023-03-01T05:04:09;17.08;;;13.27;;
40953;SDS011;26686;50.130;8.710;2023-03-01T05:09:14;15.75;;;13.57;;
40953;SDS011;26686;50.130;8.710;2023-03-01T05:14:16;15.65;;;13.95;;
40953;SDS011;26686;50.130;8.710;2023-03-01T05:19:17;14.98;;;13.38;;
40953;SDS011;26686;50.130;8.710;2023-03-01T05:24:24;16.27;;;14.57;;
40953;SDS011;26686;50.130;8.710;2023-03-01T05:29:26;16.48;;;14.73;;
40953;SDS011;26686;50.130;8.710;2023-03-01T05:34:34;15.35;;;13.75;;
40953;SDS011;26686;50.130;8.710;2023-03-01T05:39:37;17.10;;;13.98;;
40953;SDS011;26686;50.130;8.710;2023-03-01T05:44:38;16.38;;;13.82;;
40953;SDS011;26686;50.130;8.710;2023-03-01T05:49:40;19.73;;;13.25;;
40953;SDS011;26686;50.130;8.710;2023-03-01T05:54:41;15.52;;;13.88;;
40953;SDS011;26686;50.130;8.710;2023-03-01T05:59:43;15.98;;;14.27;;
40953;SDS011;26686;50.130;8.710;2023-03-01T06:04:44;14.75;;;13.23;;
40953;SDS011;26686;50.130;8.710;2023-03-01T06:09:46;15.50;;;13.90;;
40953;SDS011;26686;50.130;8.710;2023-03-01T06:14:48;15.70;;;13.98;;
40953;SDS011;26686;50.130;8.710;2023-03-01T06:19:49;15.93;;;14.23;;
40953;SDS011;26686;50.130;8.710;2023-03-01T06:24:51;15.07;;;13.60;;
40953;SDS011;26686;50.130;8.710;2023-03-01T06:29:52;16.13;;;13.43;;
40953;SDS011;26686;50.130;8.710;2023-03-01T06:34:54;17.92;;;13.70;;
40953;SDS011;26686;50.130;8.710;2023-03-01T06:39:56;18.83;;;14.07;;
40953;SDS011;26686;50.130;8.710;2023-03-01T06:44:59;15.80;;;13.00;;
40953;SDS011;26686;50.130;8.710;2023-03-01T06:50:00;15.35;;;13.68;;
40953;SDS011;26686;50.130;8.710;2023-03-01T06:55:03;18.27;;;14.25;;
40953;SDS011;26686;50.130;8.710;2023-03-01T07:00:06;16.17;;;14.40;;
40953;SDS011;26686;50.130;8.710;2023-03-01T07:05:10;16.33;;;14.23;;
40953;SDS011;26686;50.130;8.710;2023-03-01T07:10:13;16.97;;;14.37;;
40953;SDS011;26686;50.130;8.710;2023-03-01T07:15:14;19.00;;;15.13;;
40953;SDS011;26686;50.130;8.710;2023-03-01T07:20:17;15.90;;;14.10;;
40953;SDS011;26686;50.130;8.710;2023-03-01T07:25:19;18.23;;;14.05;;
40953;SDS011;26686;50.130;8.710;2023-03-01T07:30:21;17.10;;;14.65;;
40953;SDS011;26686;50.130;8.710;2023-03-01T07:35:24;20.70;;;14.48;;
40953;SDS011;26686;50.130;8.710;2023-03-01T07:40:27;19.67;;;14.65;;
40953;SDS011;26686;50.130;8.710;2023-03-01T07:45:30;16.85;;;14.25;;
40953;SDS011;26686;50.130;8.710;2023-03-01T07:50:31;19.40;;;14.70;;
40953;SDS011;26686;50.130;8.710;2023-03-01T07:55:33;21.17;;;14.73;;
40953;SDS011;26686;50.130;8.710;2023-03-01T08:00:35;27.48;;;16.05;;
40953;SDS011;26686;50.130;8.710;2023-03-01T08:05:36;22.38;;;18.77;;
40953;SDS011;26686;50.130;8.710;2023-03-01T08:10:38;18.70;;;14.52;;
40953;SDS011;26686;50.130;8.710;2023-03-01T08:15:40;16.45;;;14.70;;
40953;SDS011;26686;50.130;8.710;2023-03-01T08:20:41;18.38;;;14.73;;
40953;SDS011;26686;50.130;8.710;2023-03-01T08:25:43;19.63;;;15.55;;
40953;SDS011;26686;50.130;8.710;2023-03-01T08:30:44;19.10;;;14.73;;
40953;SDS011;26686;50.130;8.710;2023-03-01T08:35:46;17.23;;;14.75;;
40953;SDS011;26686;50.130;8.710;2023-03-01T08:40:47;18.73;;;14.48;;
40953;SDS011;26686;50.130;8.710;2023-03-01T08:45:53;15.52;;;13.88;;
40953;SDS011;26686;50.130;8.710;2023-03-01T08:51:06;16.70;;;14.48;;
40953;SDS011;26686;50.130;8.710;2023-03-01T08:56:09;15.00;;;13.35;;
40953;SDS011;26686;50.130;8.710;2023-03-01T09:01:11;14.45;;;13.05;;
40953;SDS011;26686;50.130;8.710;2023-03-01T09:06:15;14.73;;;13.20;;
40953;SDS011;26686;50.130;8.710;2023-03-01T09:11:20;15.63;;;14.02;;
40953;SDS011;26686;50.130;8.710;2023-03-01T09:16:23;17.57;;;14.93;;
40953;SDS011;26686;50.130;8.710;2023-03-01T09:21:25;16.95;;;13.25;;
40953;SDS011;26686;50.130;8.710;2023-03-01T09:26:40;19.25;;;15.10;;
40953;SDS011;26686;50.130;8.710;2023-03-01T09:31:42;23.13;;;16.33;;
40953;SDS011;26686;50.130;8.710;2023-03-01T09:36:44;17.73;;;13.52;;
40953;SDS011;26686;50.130;8.710;2023-03-01T09:47:05;19.67;;;14.70;;
40953;SDS011;26686;50.130;8.710;2023-03-01T10:03:27;16.88;;;15.25;;
40953;SDS011;26686;50.130;8.710;2023-03-01T10:14:24;14.80;;;13.30;;
40953;SDS011;26686;50.130;8.710;2023-03-01T10:24:39;15.50;;;13.90;;
40953;SDS011;26686;50.130;8.710;2023-03-01T10:30:05;14.63;;;13.32;;
40953;SDS011;26686;50.130;8.710;2023-03-01T10:35:22;15.25;;;13.57;;
40953;SDS011;26686;50.130;8.710;2023-03-01T10:40:27;16.00;;;13.23;;
40953;SDS011;26686;50.130;8.710;2023-03-01T10:50:35;14.65;;;13.25;;
40953;SDS011;26686;50.130;8.710;2023-03-01T10:55:42;13.77;;;12.48;;
40953;SDS011;26686;50.130;8.710;2023-03-01T11:01:23;13.07;;;11.70;;
40953;SDS011;26686;50.130;8.710;2023-03-01T11:11:24;14.00;;;12.60;;
40953;SDS011;26686;50.130;8.710;2023-03-01T11:16:36;13.02;;;11.90;;
40953;SDS011;26686;50.130;8.710;2023-03-01T11:21:41;14.32;;;12.00;;
40953;SDS011;26686;50.130;8.710;2023-03-01T11:26:54;11.98;;;10.77;;
40953;SDS011;26686;50.130;8.710;2023-03-01T11:31:57;12.27;;;11.02;;
40953;SDS011;26686;50.130;8.710;2023-03-01T11:37:03;10.80;;;9.68;;
40953;SDS011;26686;50.130;8.710;2023-03-01T11:42:20;10.02;;;9.13;;
40953;SDS011;26686;50.130;8.710;2023-03-01T11:48:17;10.43;;;9.40;;
40953;SDS011;26686;50.130;8.710;2023-03-01T11:58:54;9.73;;;8.88;;
40953;SDS011;26686;50.130;8.710;2023-03-01T12:14:55;9.50;;;8.60;;
40953;SDS011;26686;50.130;8.710;2023-03-01T12:20:05;8.55;;;7.85;;
40953;SDS011;26686;50.130;8.710;2023-03-01T12:46:41;7.70;;;7.05;;
40953;SDS011;26686;50.130;8.710;2023-03-01T12:51:59;6.85;;;6.25;;
40953;SDS011;26686;50.130;8.710;2023-03-01T13:03:12;11.43;;;6.90;;
40953;SDS011;26686;50.130;8.710;2023-03-01T13:13:50;7.20;;;6.50;;
40953;SDS011;26686;50.130;8.710;2023-03-01T13:19:06;7.75;;;7.05;;
40953;SDS011;26686;50.130;8.710;2023-03-01T13:29:29;7.60;;;7.00;;
40953;SDS011;26686;50.130;8.710;2023-03-01T13:34:53;8.38;;;7.68;;
40953;SDS011;26686;50.130;8.710;2023-03-01T13:40:00;8.05;;;7.45;;
40953;SDS011;26686;50.130;8.710;2023-03-01T13:50:51;9.43;;;7.47;;
40953;SDS011;26686;50.130;8.710;2023-03-01T13:56:06;8.33;;;7.53;;
40953;SDS011;26686;50.130;8.710;2023-03-01T14:01:20;7.88;;;7.05;;
40953;SDS011;26686;50.130;8.710;2023-03-01T14:06:32;8.93;;;8.00;;
40953;SDS011;26686;50.130;8.710;2023-03-01T14:22:23;10.13;;;7.68;;
40953;SDS011;26686;50.130;8.710;2023-03-01T14:27:37;8.25;;;7.50;;
40953;SDS011;26686;50.130;8.710;2023-03-01T14:32:47;7.95;;;7.20;;
40953;SDS011;26686;50.130;8.710;2023-03-01T14:37:56;7.82;;;7.03;;
40953;SDS011;26686;50.130;8.710;2023-03-01T14:42:59;8.52;;;6.78;;
40953;SDS011;26686;50.130;8.710;2023-03-01T14:48:03;9.38;;;7.75;;
40953;SDS011;26686;50.130;8.710;2023-03-01T14:53:07;8.27;;;7.53;;
40953;SDS011;26686;50.130;8.710;2023-03-01T14:58:20;13.23;;;7.38;;
40953;SDS011;26686;50.130;8.710;2023-03-01T15:08:48;13.13;;;8.20;;
40953;SDS011;26686;50.130;8.710;2023-03-01T15:13:52;11.13;;;8.68;;
40953;SDS011;26686;50.130;8.710;2023-03-01T15:19:02;10.25;;;8.93;;
40953;SDS011;26686;50.130;8.710;2023-03-01T15:29:20;9.13;;;8.10;;
40953;SDS011;26686;50.130;8.710;2023-03-01T15:34:31;9.32;;;8.25;;
40953;SDS011;26686;50.130;8.710;2023-03-01T15:44:41;9.98;;;8.60;;
40953;SDS011;26686;50.130;8.710;2023-03-01T15:49:44;10.02;;;9.00;;
40953;SDS011;26686;50.130;8.710;2023-03-01T15:54:56;10.20;;;8.40;;
40953;SDS011;26686;50.130;8.710;2023-03-01T16:00:00;9.32;;;8.43;;
40953;SDS011;26686;50.130;8.710;2023-03-01T16:05:02;10.38;;;8.38;;
40953;SDS011;26686;50.130;8.710;2023-03-01T16:10:04;10.23;;;9.10;;
40953;SDS011;26686;50.130;8.710;2023-03-01T16:15:17;10.18;;;8.68;;
40953;SDS011;26686;50.130;8.710;2023-03-01T16:20:27;11.45;;;8.95;;
40953;SDS011;26686;50.130;8.710;2023-03-01T16:25:34;9.52;;;8.45;;
40953;SDS011;26686;50.130;8.710;2023-03-01T16:30:37;9.90;;;8.90;;
40953;SDS011;26686;50.130;8.710;2023-03-01T16:35:40;10.30;;;9.30;;
40953;SDS011;26686;50.130;8.710;2023-03-01T16:40:47;10.07;;;9.05;;
40953;SDS011;26686;50.130;8.710;2023-03-01T16:45:49;10.35;;;9.27;;
40953;SDS011;26686;50.130;8.710;2023-03-01T16:51:00;10.75;;;9.75;;
40953;SDS011;26686;50.130;8.710;2023-03-01T16:56:03;10.82;;;9.73;;
40953;SDS011;26686;50.130;8.710;2023-03-01T17:01:07;11.23;;;9.50;;
40953;SDS011;26686;50.130;8.710;2023-03-01T17:06:13;10.18;;;9.18;;
40953;SDS011;26686;50.130;8.710;2023-03-01T17:16:19;11.05;;;9.05;;
40953;SDS011;26686;50.130;8.710;2023-03-01T17:21:21;10.88;;;9.63;;
40953;SDS011;26686;50.130;8.710;2023-03-01T17:26:23;11.75;;;9.85;;
40953;SDS011;26686;50.130;8.710;2023-03-01T17:31:25;13.85;;;11.02;;
40953;SDS011;26686;50.130;8.710;2023-03-01T17:36:26;13.38;;;10.95;;
40953;SDS011;26686;50.130;8.710;2023-03-01T17:41:28;12.00;;;10.52;;
40953;SDS011;26686;50.130;8.710;2023-03-01T17:46:30;12.20;;;10.90;;
40953;SDS011;26686;50.130;8.710;2023-03-01T17:51:31;13.00;;;10.40;;
40953;SDS011;26686;50.130;8.710;2023-03-01T17:56:35;16.38;;;12.60;;
40953;SDS011;26686;50.130;8.710;2023-03-01T18:01:40;13.93;;;11.63;;
40953;SDS011;26686;50.130;8.710;2023-03-01T18:06:42;11.77;;;10.57;;
40953;SDS011;26686;50.130;8.710;2023-03-01T18:11:44;10.95;;;9.77;;
40953;SDS011;26686;50.130;8.710;2023-03-01T18:16:48;12.20;;;10.82;;
40953;SDS011;26686;50.130;8.710;2023-03-01T18:21:49;12.00;;;10.57;;
40953;SDS011;26686;50.130;8.710;2023-03-01T18:26:51;12.05;;;10.75;;
40953;SDS011;26686;50.130;8.710;2023-03-01T18:31:52;13.95;;;10.13;;
40953;SDS011;26686;50.130;8.710;2023-03-01T18:36:54;12.15;;;10.88;;
40953;SDS011;26686;50.130;8.710;2023-03-01T18:47:11;26.98;;;17.80;;
40953;SDS011;26686;50.130;8.710;2023-03-01T18:52:13;14.13;;;11.40;;
40953;SDS011;26686;50.130;8.710;2023-03-01T18:57:14;15.80;;;11.77;;
40953;SDS011;26686;50.130;8.710;2023-03-01T19:02:15;14.20;;;10.95;;
40953;SDS011;26686;50.130;8.710;2023-03-01T19:07:17;12.98;;;10.82;;
40953;SDS011;26686;50.130;8.710;2023-03-01T19:12:19;14.35;;;10.77;;
40953;SDS011;26686;50.130;8.710;2023-03-01T19:17:22;11.18;;;10.02;;
40953;SDS011;26686;50.130;8.710;2023-03-01T19:22:31;12.27;;;11.02;;
40953;SDS011;26686;50.130;8.710;2023-03-01T19:27:32;12.98;;;11.40;;
40953;SDS011;26686;50.130;8.710;2023-03-01T19:32:35;14.07;;;11.57;;
40953;SDS011;26686;50.130;8.710;2023-03-01T19:37:37;12.75;;;10.35;;
40953;SDS011;26686;50.130;8.710;2023-03-01T19:42:38;11.55;;;10.35;;
40953;SDS011;26686;50.130;8.710;2023-03-01T19:47:39;11.82;;;10.63;;
40953;SDS011;26686;50.130;8.710;2023-03-01T19:52:41;13.88;;;10.00;;
40953;SDS011;26686;50.130;8.710;2023-03-01T19:57:42;11.55;;;10.35;;
40953;SDS011;26686;50.130;8.710;2023-03-01T20:02:44;14.68;;;11.88;;
40953;SDS011;26686;50.130;8.710;2023-03-01T20:07:46;13.68;;;11.10;;
40953;SDS011;26686;50.130;8.710;2023-03-01T20:12:48;17.05;;;13.63;;
40953;SDS011;26686;50.130;8.710;2023-03-01T20:17:49;13.57;;;11.80;;
40953;SDS011;26686;50.130;8.710;2023-03-01T20:22:51;15.70;;;12.20;;
40953;SDS011;26686;50.130;8.710;2023-03-01T20:27:53;14.88;;;11.52;;
40953;SDS011;26686;50.130;8.710;2023-03-01T20:32:54;20.80;;;12.38;;
40953;SDS011;26686;50.130;8.710;2023-03-01T20:37:56;13.88;;;11.48;;
40953;SDS011;26686;50.130;8.710;2023-03-01T20:42:58;14.77;;;11.75;;
40953;SDS011;26686;50.130;8.710;2023-03-01T20:48:01;12.32;;;11.00;;
40953;SDS011;26686;50.130;8.710;2023-03-01T20:53:02;12.55;;;11.25;;
40953;SDS011;26686;50.130;8.710;2023-03-01T20:58:04;15.10;;;11.70;;
40953;SDS011;26686;50.130;8.710;2023-03-01T21:03:05;14.45;;;11.68;;
40953;SDS011;26686;50.130;8.710;2023-03-01T21:08:07;12.43;;;11.20;;
40953;SDS011;26686;50.130;8.710;2023-03-01T21:13:10;13.82;;;11.07;;
40953;SDS011;26686;50.130;8.710;2023-03-01T21:18:12;13.38;;;11.85;;
40953;SDS011;26686;50.130;8.710;2023-03-01T21:23:14;12.40;;;11.10;;
40953;SDS011;26686;50.130;8.710;2023-03-01T21:28:15;12.60;;;10.70;;
40953;SDS011;26686;50.130;8.710;2023-03-01T21:33:17;14.60;;;12.30;;
40953;SDS011;26686;50.130;8.710;2023-03-01T21:38:19;16.20;;;12.52;;
40953;SDS011;26686;50.130;8.710;2023-03-01T21:43:20;14.73;;;12.05;;
40953;SDS011;26686;50.130;8.710;2023-03-01T21:48:23;12.88;;;11.43;;
40953;SDS011;26686;50.130;8.710;2023-03-01T21:53:25;13.70;;;11.70;;
40953;SDS011;26686;50.130;8.710;2023-03-01T21:58:29;14.33;;;11.47;;
40953;SDS011;26686;50.130;8.710;2023-03-01T22:03:31;11.30;;;10.20;;
40953;SDS011;26686;50.130;8.710;2023-03-01T22:08:33;14.32;;;12.13;;
40953;SDS011;26686;50.130;8.710;2023-03-01T22:13:35;12.48;;;10.82;;
40953;SDS011;26686;50.130;8.710;2023-03-01T22:18:37;15.20;;;11.18;;
40953;SDS011;26686;50.130;8.710;2023-03-01T22:23:39;12.23;;;10.93;;
40953;SDS011;26686;50.130;8.710;2023-03-01T22:28:40;12.35;;;11.02;;
40953;SDS011;26686;50.130;8.710;2023-03-01T22:33:45;15.75;;;11.98;;
40953;SDS011;26686;50.130;8.710;2023-03-01T22:38:47;13.00;;;10.98;;
40953;SDS011;26686;50.130;8.710;2023-03-01T22:43:49;14.80;;;11.43;;
40953;SDS011;26686;50.130;8.710;2023-03-01T22:48:50;15.27;;;11.82;;
40953;SDS011;26686;50.130;8.710;2023-03-01T22:53:53;12.43;;;10.63;;
40953;SDS011;26686;50.130;8.710;2023-03-01T22:58:58;12.85;;;10.88;;
40953;SDS011;26686;50.130;8.710;2023-03-01T23:04:01;12.77;;;10.77;;
40953;SDS011;26686;50.130;8.710;2023-03-01T23:09:04;11.43;;;10.23;;
40953;SDS011;26686;50.130;8.710;2023-03-01T23:14:06;14.38;;;12.02;;
40953;SDS011;26686;50.130;8.710;2023-03-01T23:19:08;13.50;;;11.15;;
40953;SDS011;26686;50.130;8.710;2023-03-01T23:24:10;14.35;;;11.10;;
40953;SDS011;26686;50.130;8.710;2023-03-01T23:29:11;12.80;;;11.15;;
40953;SDS011;26686;50.130;8.710;2023-03-01T23:34:13;15.50;;;11.35;;
40953;SDS011;26686;50.130;8.710;2023-03-01T23:39:14;13.57;;;10.73;;
40953;SDS011;26686;50.130;8.710;2023-03-01T23:44:18;12.77;;;10.75;;
40953;SDS011;26686;50.130;8.710;2023-03-01T23:49:21;13.20;;;10.60;;
40953;SDS011;26686;50.130;8.710;2023-03-01T23:54:23;14.18;;;11.35;;
40953;SDS011;26686;50.130;8.710;2023-03-01T23:59:25;13.43;;;10.93;;
